Weather observations for the past three days for
North Myrtle Beach Grand Strand Airport
Imperial (Metric)
Date Time (edt) Wind (mph) Vis. (mi.) Weather Sky Cond. Temperature (ºF) Relative Humidity Wind Chill (°F) Heat Index (°F) Pressure Precipitation (in)
Air Dwpt 6 hour altimeter (in) sea level (mb) 1 hr 3 hr 6 hr
Max. Min.
03 23:53 S 6 10.00 A Few Clouds FEW016 82 77 85% 90 30.04 1017.3
03 22:53 S 6 10.00 Partly Cloudy SCT018 82.9 77 82% 92 30.05 1017.6
03 21:53 S 7 10.00 Partly Cloudy SCT018 82.9 77 82% 92 30.05 1017.5
03 20:53 S 6 10.00 Mostly Cloudy BKN018 82.9 77 82% 92 30.02 1016.6
03 19:53 S 7 10.00 A Few Clouds FEW016 82.9 78.1 87.1 82.9 85% 93 30 1016.0
03 18:53 S 6 10.00 A Few Clouds FEW017 84 78.1 82% 95 30.02 1016.5
03 17:53 SE 8 10.00 A Few Clouds FEW017 84.9 78.1 80% 97 30.02 1016.4
03 16:53 S 10 10.00 Fair CLR 86 77 75% 97 30.02 1016.8
03 15:53 SE 12 10.00 Fair CLR 87.1 75.9 70% 98 30.03 1017.1
03 14:53 S 10 10.00 Fair CLR 87.1 77 72% 99 30.04 1017.5
03 13:53 SE 9 10.00 Fair CLR 87.1 78.1 87.1 77 75% 100 30.06 1017.8
03 12:53 SE 9 10.00 Fair CLR 86 78.1 77% 98 30.06 1018.1
03 11:53 SE 8 10.00 Fair CLR 87.1 77 72% 99 30.07 1018.4
03 10:53 Vrbl 3 10.00 A Few Clouds FEW019 86 77 75% 97 30.07 1018.3
03 09:53 Calm 10.00 Partly Cloudy SCT016 84 75.9 77% 93 30.06 1018.1
03 08:53 N 3 10.00 Fair CLR 81 77 88% 88 30.07 1018.3
03 07:53 Calm 10.00 Partly Cloudy SCT050 77 75.9 81 75 96% 78 30.07 1018.3
03 06:53 Calm 10.00 Fair CLR 75.9 75 97% 75 30.05 1017.5
03 05:53 Calm 10.00 Fair CLR 75.9 75.9 100% 75 30.04 1017.2
03 04:53 Calm 10.00 Fair CLR 75.9 75.9 100% 75 30.03 1017.0
03 03:53 Calm 10.00 Fair CLR 77 75.9 96% 78 30.02 1016.8
03 02:53 Calm 10.00 A Few Clouds FEW060 79 77 94% 83 30.02 1016.5
03 01:53 S 5 10.00 Fair CLR 81 77 82.9 81 88% 88 30.02 1016.7
03 00:53 SW 5 10.00 Fair CLR 81 75.9 85% 87 30.03 1016.9
02 23:53 S 8 10.00 Fair CLR 82.9 75.9 79% 91 30.01 1016.4
02 22:53 S 7 10.00 Fair CLR 82.9 77 82% 92 30.05 1017.6
02 21:53 S 7 10.00 Fair CLR 82.9 75.9 79% 91 30.06 1018.1
02 20:53 S 8 10.00 Fair CLR 82.9 75.9 79% 91 30.04 1017.4
02 19:53 S 7 10.00 Fair CLR 82.9 75.9 90 82.9 79% 91 30.02 1016.7
02 18:53 S 6 10.00 Fair CLR 84.9 75.9 75% 94 30.02 1016.7
02 17:53 SW 12 10.00 Fair CLR 86 75 70% 95 30.02 1016.5
02 16:53 SW 14 10.00 Fair CLR 87.1 75 67% 97 30.03 1016.8
02 15:53 S 14 10.00 Fair CLR 87.1 75.9 70% 98 30.04 1017.4
02 14:53 S 10 10.00 Fair CLR 88 77 70% 100 30.05 1017.7
02 13:53 S 8 10.00 Fair CLR 90 77 91 77 66% 103 30.05 1017.8
02 12:53 S 8 10.00 Fair CLR 90 77 66% 103 30.06 1018.1
02 11:53 Calm 10.00 Fair CLR 89.1 72 57% 96 30.07 1018.3
02 10:53 NW 3 10.00 Fair CLR 87.1 71.1 59% 93 30.07 1018.2
02 09:53 Calm 10.00 Fair CLR 84 73.9 72% 91 30.07 1018.4
02 08:53 Calm 10.00 Fair CLR 80.1 77 90% 86 30.08 1018.7
02 07:53 W 3 10.00 Fair CLR 77 75.9 79 75 96% 78 30.08 1018.7
02 06:53 Vrbl 3 10.00 Fair CLR 75 75 100% 72 30.07 1018.5
02 05:53 Calm 10.00 Fair CLR 75 75 100% 72 30.06 1018.0
02 04:53 Calm 10.00 Fair CLR 75 75 100% 72 30.05 1017.8
02 03:53 Calm 10.00 Fair CLR 75.9 75 97% 75 30.05 1017.7
02 02:53 Calm 10.00 Fair CLR 77 75.9 96% 78 30.05 1017.7
02 01:53 Calm 10.00 Fair CLR 79 75.9 82 79 90% 83 30.06 1017.8
02 00:53 SW 8 10.00 Fair CLR 80.1 75.9 87% 85 30.05 1017.8
01 23:53 SW 6 10.00 Fair CLR 81 75.9 85% 87 30.05 1017.5
01 22:53 S 7 10.00 Fair CLR 81 75 82% 87 30.05 1017.5
01 21:53 S 8 10.00 Fair CLR 82 75 79% 89 30.05 1017.6
01 20:53 S 6 10.00 Fair CLR 82 75 79% 89 30.04 1017.3
01 19:53 S 6 10.00 Fair CLR 82 73.9 88 82 77% 88 30.03 1017.0
01 18:53 S 7 10.00 Fair CLR 84 73.9 72% 91 30.04 1017.3
01 17:53 S 8 10.00 Fair CLR 84 75.9 77% 93 30.04 1017.3
01 16:53 S 8 10.00 Fair CLR 84.9 75.9 75% 94 30.04 1017.2
01 15:53 S 12 10.00 Fair CLR 86 75.9 72% 96 30.04 1017.3
01 14:53 S 12 10.00 Fair CLR 87.1 77 72% 99 30.06 1017.9
01 13:53 S 8 10.00 Fair CLR 88 75.9 89.1 75 68% 99 30.07 1018.1
01 11:53 N 7 10.00 Light Rain FEW035 88 73.9 63% 97 30.09 1018.9
01 10:53 Vrbl 5 10.00 Fair CLR 84.9 73.9 70% 92 30.1 1019.2
01 09:53 Calm 10.00 Fair CLR 82.9 73.9 74% 89 30.1 1019.3
01 08:53 Vrbl 3 10.00 Fair CLR 78.1 75.9 93% 81 30.1 1019.2
01 07:53 N 5 10.00 A Few Clouds FEW002 75 75 75 73 100% 72 30.09 1018.8
01 06:53 N 5 4.00 Fog/Mist BKN002 73 73 100% 30.07 1018.4
01 05:53 Calm 10.00 Fair CLR 73.9 73.9 100% 30.06 1017.9
01 04:53 Calm 7.00 Fair CLR 73.9 73.9 100% 30.06 1017.9
01 03:53 Calm 10.00 Fair CLR 75 73.9 96% 73 30.06 1018.1
01 02:53 Calm 3.00 Fog/Mist CLR 75 75 100% 72 30.07 1018.3
01 01:53 Calm 10.00 Fair CLR 75 75 82 75 100% 72 30.08 1018.5
01 00:53 Calm 10.00 Fair CLR 77 75.9 96% 78 30.09 1019.0
Date Time (edt) Wind (mph) Vis. (mi.) Weather Sky Cond. Air Dwpt Max. Min. Relative Humidity Wind Chill (°F) Heat Index (°F) altimeter (in) sea level (mb) 1 hr 3 hr 6 hr
6 hour
Temperature (ºF) Pressure Precipitation (in)